Time;durP1;ratioP1;P1;durP2;ratioP2;P2;SDS_P1;SDS_P2;PMS_P1;PMS_P2;Temp;Humidity;BMP_temperature;BMP_pressure;BME280_temperature;BME280_humidity;BME280_pressure;Samples;Min_cycle;Max_cycle;Signal;HPM_P1;HPM_P2
2021/10/18 00:00:07;;;;;;;0.63;0.50;;;3.60;99.90;;;;;;5032279;28;20393;-68
2021/10/18 00:02:33;;;;;;;0.50;0.50;;;3.60;99.90;;;;;;5018319;28;20076;-66
2021/10/18 00:04:58;;;;;;;0.40;0.40;;;3.60;99.90;;;;;;5031279;28;20025;-66
2021/10/18 00:07:24;;;;;;;0.50;0.50;;;3.50;99.90;;;;;;5032180;28;20026;-66
2021/10/18 00:09:50;;;;;;;1.95;0.60;;;3.50;99.90;;;;;;5024323;28;20092;-66
2021/10/18 00:12:16;;;;;;;1.30;0.60;;;3.50;99.90;;;;;;5017227;28;20024;-66
2021/10/18 00:14:42;;;;;;;1.38;0.50;;;3.50;99.90;;;;;;5024918;28;20079;-66
2021/10/18 00:17:07;;;;;;;1.23;0.70;;;3.50;99.90;;;;;;5031863;28;20029;-67
2021/10/18 00:19:33;;;;;;;1.40;0.60;;;3.40;99.90;;;;;;5031759;28;20052;-67
2021/10/18 00:21:59;;;;;;;0.63;0.50;;;3.50;99.90;;;;;;5031530;28;20091;-67
2021/10/18 00:24:25;;;;;;;1.05;0.50;;;3.50;99.90;;;;;;5030825;28;20104;-67
2021/10/18 00:26:51;;;;;;;2.33;0.70;;;3.50;99.90;;;;;;5031857;28;20026;-67
2021/10/18 00:29:17;;;;;;;0.50;0.50;;;3.40;99.90;;;;;;5031522;28;20065;-67
2021/10/18 00:31:43;;;;;;;1.33;0.60;;;3.40;99.90;;;;;;5031605;28;20381;-67
2021/10/18 00:34:08;;;;;;;2.03;0.70;;;3.40;99.90;;;;;;5031637;28;20029;-67
2021/10/18 00:36:34;;;;;;;1.02;0.50;;;3.40;99.90;;;;;;5017752;28;20022;-67
2021/10/18 00:39:00;;;;;;;0.50;0.50;;;3.40;99.90;;;;;;5031801;28;20026;-67
2021/10/18 00:41:25;;;;;;;0.50;0.50;;;3.40;99.90;;;;;;5031681;28;20021;-68
2021/10/18 00:43:52;;;;;;;0.43;0.43;;;3.40;99.90;;;;;;5031685;28;20029;-67
2021/10/18 00:46:22;;;;;;;0.40;0.40;;;3.40;99.90;;;;;;5031288;28;20033;-67
2021/10/18 00:48:49;;;;;;;0.53;0.50;;;3.40;99.90;;;;;;5031462;28;20111;-67
2021/10/18 00:51:16;;;;;;;0.60;0.50;;;3.40;99.90;;;;;;5031137;28;20384;-67
2021/10/18 00:53:44;;;;;;;0.80;0.70;;;3.40;99.90;;;;;;5031591;28;20025;-67
2021/10/18 00:56:10;;;;;;;0.88;0.60;;;3.30;99.90;;;;;;5031244;28;20050;-67
2021/10/18 00:58:36;;;;;;;1.75;0.40;;;3.40;99.90;;;;;;5031235;28;20014;-67
2021/10/18 01:01:02;;;;;;;0.50;0.50;;;3.40;99.90;;;;;;5031517;28;20025;-67
2021/10/18 01:03:28;;;;;;;1.48;0.50;;;3.30;99.90;;;;;;5031480;28;20032;-67
2021/10/18 01:05:54;;;;;;;1.00;0.50;;;3.30;99.90;;;;;;5031438;28;20801;-67
2021/10/18 01:08:20;;;;;;;0.60;0.60;;;3.30;99.90;;;;;;5031209;28;20030;-67
2021/10/18 01:10:46;;;;;;;0.80;0.50;;;3.30;99.90;;;;;;5031220;28;20024;-67
2021/10/18 01:13:12;;;;;;;0.55;0.40;;;3.30;99.90;;;;;;5031473;28;20108;-67
2021/10/18 01:15:38;;;;;;;0.50;0.50;;;3.30;99.90;;;;;;5030913;28;20025;-67
2021/10/18 01:18:04;;;;;;;2.00;0.60;;;3.30;99.90;;;;;;5031608;28;20128;-67
2021/10/18 01:20:32;;;;;;;0.50;0.50;;;3.30;99.90;;;;;;5031259;28;20025;-67
2021/10/18 01:22:58;;;;;;;0.68;0.60;;;3.30;99.90;;;;;;5022593;28;20026;-67
2021/10/18 01:25:24;;;;;;;3.40;0.50;;;3.30;99.90;;;;;;5025460;28;20060;-67
2021/10/18 01:27:51;;;;;;;0.50;0.50;;;3.20;99.90;;;;;;5030872;28;20607;-68
2021/10/18 01:30:17;;;;;;;0.50;0.50;;;3.20;99.90;;;;;;5031314;28;20037;-68
2021/10/18 01:32:43;;;;;;;2.38;0.60;;;3.20;99.90;;;;;;5017105;28;20033;-68
2021/10/18 01:35:09;;;;;;;0.85;0.60;;;3.20;99.90;;;;;;5030976;28;20033;-67
2021/10/18 01:37:35;;;;;;;0.70;0.70;;;3.20;99.90;;;;;;5034172;28;20022;-67
2021/10/18 01:40:04;;;;;;;0.52;0.43;;;3.20;99.90;;;;;;5026127;28;20029;-68
2021/10/18 01:42:29;;;;;;;0.50;0.50;;;3.20;99.90;;;;;;5029659;28;20032;-68
2021/10/18 01:44:55;;;;;;;1.42;0.65;;;3.20;99.90;;;;;;5034356;28;20021;-67
2021/10/18 01:47:21;;;;;;;0.50;0.50;;;3.20;99.90;;;;;;5034659;28;20033;-67
2021/10/18 01:49:47;;;;;;;1.58;0.40;;;3.20;99.90;;;;;;5034454;28;20043;-67
2021/10/18 01:52:12;;;;;;;0.60;0.60;;;3.20;99.90;;;;;;5034344;28;20491;-67
2021/10/18 01:54:38;;;;;;;0.50;0.50;;;3.30;99.90;;;;;;5034102;28;20095;-67
2021/10/18 01:57:04;;;;;;;0.55;0.55;;;3.20;99.90;;;;;;5024413;28;20025;-67
2021/10/18 01:59:30;;;;;;;0.40;0.40;;;3.30;99.90;;;;;;5030319;28;20037;-67
2021/10/18 02:01:55;;;;;;;2.08;0.50;;;3.30;99.90;;;;;;5034224;28;20026;-68
2021/10/18 02:04:21;;;;;;;0.68;0.40;;;3.30;99.90;;;;;;5034134;28;20445;-67
2021/10/18 02:06:47;;;;;;;1.00;0.55;;;3.30;99.90;;;;;;5026145;28;20030;-67
2021/10/18 02:09:12;;;;;;;0.50;0.50;;;3.30;99.90;;;;;;5027979;28;20109;-67
2021/10/18 02:11:38;;;;;;;0.50;0.50;;;3.30;99.90;;;;;;5033743;28;20032;-67
2021/10/18 02:14:04;;;;;;;0.40;0.40;;;3.30;99.90;;;;;;5033878;28;20071;-67
2021/10/18 02:16:29;;;;;;;0.77;0.60;;;3.30;99.90;;;;;;5020411;28;20033;-67
2021/10/18 02:18:55;;;;;;;0.50;0.50;;;3.30;99.90;;;;;;5033305;28;20022;-67
2021/10/18 02:21:21;;;;;;;1.92;0.60;;;3.30;99.90;;;;;;5021525;28;20022;-67
2021/10/18 02:23:46;;;;;;;0.50;0.50;;;3.30;99.90;;;;;;5032187;28;20033;-67
2021/10/18 02:52:51;;;;;;;3.63;0.50;;;3.30;99.90;;;;;;5016962;28;20080;-68
2021/10/18 02:55:17;;;;;;;0.90;0.47;;;3.20;99.90;;;;;;5027525;28;20132;-67
2021/10/18 02:57:42;;;;;;;0.50;0.50;;;3.30;99.90;;;;;;5033254;28;20013;-67
2021/10/18 03:00:09;;;;;;;0.65;0.47;;;3.30;99.90;;;;;;5030966;28;20033;-67
2021/10/18 03:02:34;;;;;;;2.45;0.43;;;3.30;99.90;;;;;;5021240;28;20510;-67
2021/10/18 03:05:00;;;;;;;1.00;0.50;;;3.30;99.90;;;;;;5033343;28;20560;-67
2021/10/18 03:07:26;;;;;;;5.05;2.47;;;3.30;99.90;;;;;;5032695;28;20013;-67
2021/10/18 03:09:51;;;;;;;1.55;0.80;;;3.30;99.90;;;;;;5025507;28;20033;-67
2021/10/18 03:12:17;;;;;;;0.60;0.60;;;3.30;99.90;;;;;;5021639;28;20473;-67
2021/10/18 03:14:43;;;;;;;0.73;0.60;;;3.20;99.90;;;;;;5030759;28;20068;-68
2021/10/18 03:17:08;;;;;;;2.67;0.80;;;3.30;99.90;;;;;;5032959;28;20491;-67
2021/10/18 03:19:34;;;;;;;2.28;0.63;;;3.20;99.90;;;;;;5032660;28;20101;-67
2021/10/18 03:22:00;;;;;;;0.68;0.40;;;3.20;99.90;;;;;;5032563;28;20017;-67
2021/10/18 03:24:25;;;;;;;0.50;0.50;;;3.30;99.90;;;;;;5032828;28;20026;-69
2021/10/18 03:26:51;;;;;;;0.88;0.60;;;3.20;99.90;;;;;;5032888;28;20109;-67
2021/10/18 03:29:17;;;;;;;2.15;0.55;;;3.20;99.90;;;;;;5032284;28;20035;-67
2021/10/18 03:31:43;;;;;;;1.80;0.50;;;3.20;99.90;;;;;;5032850;28;20025;-67
2021/10/18 03:34:08;;;;;;;0.52;0.52;;;3.20;99.90;;;;;;5032179;28;20431;-67
2021/10/18 03:36:34;;;;;;;3.13;0.60;;;3.20;99.90;;;;;;5027832;28;20108;-67
2021/10/18 03:39:00;;;;;;;0.73;0.50;;;3.20;99.90;;;;;;5023440;28;20060;-67
2021/10/18 03:41:26;;;;;;;0.45;0.45;;;3.20;99.90;;;;;;5032186;28;20622;-67
2021/10/18 03:43:51;;;;;;;1.38;0.55;;;3.20;99.90;;;;;;5032283;28;20064;-67
2021/10/18 03:46:17;;;;;;;2.13;0.50;;;3.20;99.90;;;;;;5032239;28;20473;-68
2021/10/18 03:48:43;;;;;;;0.47;0.47;;;3.20;99.90;;;;;;5032342;28;20029;-67
2021/10/18 03:51:08;;;;;;;2.00;0.65;;;3.20;99.90;;;;;;5032389;28;20026;-67
2021/10/18 03:53:34;;;;;;;1.42;0.70;;;3.20;99.90;;;;;;5032633;28;20475;-67
2021/10/18 03:56:00;;;;;;;0.55;0.55;;;3.20;99.90;;;;;;5031924;28;20050;-68
2021/10/18 03:58:25;;;;;;;0.60;0.60;;;3.20;99.90;;;;;;5031923;28;20390;-67
2021/10/18 04:00:51;;;;;;;2.13;0.63;;;3.20;99.90;;;;;;5032235;28;20030;-67
2021/10/18 04:03:17;;;;;;;0.43;0.43;;;3.20;99.90;;;;;;5031731;28;20040;-67
2021/10/18 04:05:43;;;;;;;0.50;0.50;;;3.20;99.90;;;;;;5032072;28;20017;-68
2021/10/18 04:08:10;;;;;;;0.98;0.60;;;3.10;99.90;;;;;;5031775;28;20560;-67
2021/10/18 04:10:36;;;;;;;0.73;0.60;;;3.10;99.90;;;;;;5031922;28;20034;-68
2021/10/18 04:13:02;;;;;;;0.40;0.40;;;3.10;99.90;;;;;;5031426;28;20032;-68
2021/10/18 04:15:28;;;;;;;0.50;0.50;;;3.10;99.90;;;;;;5012183;28;20042;-67
2021/10/18 04:17:54;;;;;;;2.95;0.65;;;3.10;99.90;;;;;;5029658;28;20052;-67
2021/10/18 04:20:20;;;;;;;0.50;0.50;;;3.10;99.90;;;;;;5031858;28;20029;-68
2021/10/18 04:22:48;;;;;;;2.33;0.60;;;3.10;99.90;;;;;;5031625;28;20105;-68
2021/10/18 04:25:15;;;;;;;2.15;0.50;;;3.00;99.90;;;;;;5032020;28;20025;-67
2021/10/18 04:27:41;;;;;;;0.70;0.70;;;3.00;99.90;;;;;;5031378;28;20462;-67
2021/10/18 04:30:08;;;;;;;1.13;0.55;;;3.00;99.90;;;;;;5031572;28;20033;-68
2021/10/18 04:32:33;;;;;;;0.63;0.50;;;3.00;99.90;;;;;;5031538;28;20076;-71
2021/10/18 04:34:59;;;;;;;0.50;0.50;;;3.00;99.90;;;;;;5031732;28;20080;-67
2021/10/18 04:37:25;;;;;;;1.75;0.60;;;3.00;99.90;;;;;;5020225;28;20018;-68
2021/10/18 04:39:50;;;;;;;0.70;0.60;;;3.10;99.90;;;;;;5021917;28;20081;-68
2021/10/18 04:42:16;;;;;;;0.60;0.60;;;3.20;99.90;;;;;;5022075;28;20022;-68
2021/10/18 04:44:42;;;;;;;0.63;0.60;;;3.10;99.90;;;;;;5025237;28;20114;-68
2021/10/18 04:47:08;;;;;;;1.20;0.60;;;3.10;99.90;;;;;;5031463;28;20065;-74
2021/10/18 04:49:33;;;;;;;1.20;0.60;;;3.10;99.90;;;;;;5031054;28;20466;-75
2021/10/18 04:51:59;;;;;;;0.73;0.60;;;3.00;99.90;;;;;;5031101;28;20032;-71
2021/10/18 04:54:25;;;;;;;1.52;0.80;;;3.00;99.90;;;;;;5030775;28;20072;-73
2021/10/18 04:56:50;;;;;;;1.88;0.50;;;3.00;99.90;;;;;;5031092;28;20030;-73
2021/10/18 04:59:16;;;;;;;3.20;0.63;;;3.00;99.90;;;;;;5031335;28;20021;-72
2021/10/18 05:01:42;;;;;;;0.50;0.50;;;2.90;99.90;;;;;;5031397;28;20026;-73
2021/10/18 05:04:07;;;;;;;1.17;0.70;;;2.90;99.90;;;;;;5031175;28;20021;-68
2021/10/18 05:06:33;;;;;;;1.05;0.50;;;2.90;99.90;;;;;;5019619;28;20033;-68
2021/10/18 05:08:58;;;;;;;0.40;0.40;;;2.80;99.90;;;;;;5021098;28;20029;-69
2021/10/18 05:11:24;;;;;;;0.75;0.63;;;2.80;99.90;;;;;;5032342;28;20112;-69
2021/10/18 05:13:50;;;;;;;2.45;0.50;;;2.80;99.90;;;;;;5021323;28;20037;-68
2021/10/18 05:16:16;;;;;;;1.02;0.65;;;2.80;99.90;;;;;;5035023;28;20498;-68
2021/10/18 05:18:41;;;;;;;1.95;0.70;;;2.80;99.90;;;;;;5035113;28;20022;-69
2021/10/18 05:21:07;;;;;;;0.35;0.35;;;2.80;99.90;;;;;;5034869;28;20409;-68
2021/10/18 05:23:33;;;;;;;1.48;0.85;;;2.80;99.90;;;;;;5034920;28;20113;-68
2021/10/18 05:26:00;;;;;;;0.63;0.60;;;2.70;99.90;;;;;;5034805;28;20030;-67
2021/10/18 05:28:26;;;;;;;2.15;0.60;;;2.70;99.90;;;;;;5031978;28;20033;-68
2021/10/18 05:30:52;;;;;;;0.68;0.68;;;2.70;99.90;;;;;;5023338;28;20381;-67
2021/10/18 05:33:17;;;;;;;0.98;0.60;;;2.70;99.90;;;;;;5033399;28;20034;-67
2021/10/18 05:35:43;;;;;;;3.40;0.88;;;2.70;99.90;;;;;;5027915;28;20587;-67
2021/10/18 05:38:09;;;;;;;0.88;0.60;;;2.70;99.90;;;;;;5034451;28;20100;-67
2021/10/18 05:40:34;;;;;;;0.60;0.55;;;2.70;99.90;;;;;;5034757;28;20061;-67
2021/10/18 05:43:00;;;;;;;0.60;0.60;;;2.70;99.90;;;;;;5034276;28;20029;-67
2021/10/18 05:45:26;;;;;;;1.65;0.70;;;2.70;99.90;;;;;;5034636;28;20030;-68
2021/10/18 05:48:01;;;;;;;0.70;0.70;;;2.70;99.90;;;;;;5034284;28;20411;-67
2021/10/18 05:50:34;;;;;;;1.40;0.68;;;2.80;99.90;;;;;;5034144;28;20071;-69
2021/10/18 05:53:00;;;;;;;0.70;0.70;;;2.80;99.90;;;;;;5020218;28;20013;-68
2021/10/18 05:55:26;;;;;;;1.58;0.60;;;2.70;99.90;;;;;;5028272;28;20046;-68
2021/10/18 05:57:53;;;;;;;0.98;0.60;;;2.70;99.90;;;;;;5027918;28;20071;-68
2021/10/18 06:00:19;;;;;;;2.42;0.60;;;2.70;99.90;;;;;;5033405;28;20037;-67
2021/10/18 06:02:45;;;;;;;1.42;0.80;;;2.70;99.90;;;;;;5022178;28;20026;-69
2021/10/18 06:05:11;;;;;;;0.85;0.60;;;2.80;99.90;;;;;;5023247;28;20098;-69
2021/10/18 06:07:37;;;;;;;3.22;0.70;;;2.80;99.90;;;;;;5034048;28;20032;-69
2021/10/18 06:10:04;;;;;;;2.25;0.50;;;2.80;99.90;;;;;;5027238;28;20026;-69
2021/10/18 06:12:30;;;;;;;0.60;0.60;;;2.80;99.90;;;;;;5032742;28;20041;-69
2021/10/18 06:14:55;;;;;;;2.70;0.70;;;2.80;99.90;;;;;;5034066;28;20034;-69
2021/10/18 06:17:21;;;;;;;2.05;0.50;;;2.80;99.90;;;;;;5033653;28;20420;-67
2021/10/18 06:19:47;;;;;;;1.25;0.60;;;2.80;99.90;;;;;;5021259;28;20026;-67
2021/10/18 06:22:13;;;;;;;1.55;1.45;;;3.20;99.90;;;;;;5032172;28;20055;-67
2021/10/18 06:24:38;;;;;;;1.83;0.70;;;3.50;99.90;;;;;;5033641;28;20025;-67
2021/10/18 06:27:04;;;;;;;0.40;0.40;;;3.40;99.90;;;;;;5033751;28;20029;-67
2021/10/18 06:29:31;;;;;;;0.70;0.70;;;3.40;99.90;;;;;;5023027;28;20026;-67
2021/10/18 06:31:57;;;;;;;0.60;0.60;;;3.40;99.90;;;;;;5030169;28;20025;-67
2021/10/18 06:34:23;;;;;;;1.92;0.93;;;3.40;99.90;;;;;;5023680;28;20026;-67
2021/10/18 06:36:48;;;;;;;0.40;0.40;;;3.40;99.90;;;;;;5020838;28;20515;-67
2021/10/18 06:39:14;;;;;;;0.50;0.50;;;3.40;99.90;;;;;;5033801;28;20049;-67
2021/10/18 06:41:40;;;;;;;0.77;0.50;;;3.50;99.90;;;;;;5033375;28;20108;-67
2021/10/18 06:44:06;;;;;;;0.85;0.50;;;3.50;99.90;;;;;;5033355;28;20051;-67
2021/10/18 06:46:31;;;;;;;0.93;0.70;;;3.50;99.90;;;;;;5033256;28;20022;-68
2021/10/18 06:48:58;;;;;;;2.55;1.05;;;3.50;99.90;;;;;;5033332;28;20033;-67
2021/10/18 06:51:30;;;;;;;0.90;0.60;;;3.50;99.90;;;;;;5033215;28;20025;-68
2021/10/18 06:53:56;;;;;;;1.42;0.65;;;3.50;99.90;;;;;;5033110;28;20492;-67
2021/10/18 06:56:22;;;;;;;1.95;0.80;;;3.60;99.90;;;;;;5032473;28;20053;-66
2021/10/18 06:58:47;;;;;;;0.50;0.50;;;5.00;99.90;;;;;;5032813;28;20112;-68
2021/10/18 07:01:13;;;;;;;2.25;0.60;;;7.60;99.90;;;;;;5023270;28;20040;-68
2021/10/18 07:03:39;;;;;;;0.80;0.52;;;7.30;99.90;;;;;;5029592;28;20032;-68
2021/10/18 07:06:04;;;;;;;1.02;0.45;;;6.10;99.90;;;;;;5032856;28;20021;-68
2021/10/18 07:08:30;;;;;;;2.72;0.40;;;5.40;99.90;;;;;;5032774;28;20116;-67
2021/10/18 07:10:56;;;;;;;0.98;0.73;;;4.90;99.90;;;;;;5032799;28;20029;-69
2021/10/18 07:13:22;;;;;;;1.67;0.45;;;4.60;99.90;;;;;;5017606;28;20026;-71
2021/10/18 07:15:47;;;;;;;0.40;0.40;;;4.40;99.90;;;;;;5022877;28;20041;-70
2021/10/18 07:18:13;;;;;;;0.75;0.50;;;4.30;99.90;;;;;;5023202;28;20022;-69
2021/10/18 07:20:39;;;;;;;1.20;0.70;;;4.20;99.90;;;;;;5032657;28;20543;-70
2021/10/18 07:23:10;;;;;;;0.57;0.57;;;4.10;99.90;;;;;;5032530;28;20388;-69
2021/10/18 07:25:39;;;;;;;0.75;0.47;;;3.90;99.90;;;;;;5032378;28;20434;-69
2021/10/18 07:28:07;;;;;;;0.98;0.60;;;3.90;99.90;;;;;;5032599;28;20021;-70
2021/10/18 07:30:34;;;;;;;0.50;0.50;;;3.90;99.90;;;;;;5024184;28;20022;-70
2021/10/18 07:33:01;;;;;;;0.77;0.52;;;3.90;99.90;;;;;;5021188;28;20104;-69
2021/10/18 07:35:32;;;;;;;0.50;0.50;;;3.90;99.90;;;;;;5030850;28;20048;-70
2021/10/18 07:37:59;;;;;;;0.73;0.50;;;3.80;99.90;;;;;;5013966;28;20037;-70
2021/10/18 07:40:26;;;;;;;0.55;0.50;;;3.80;99.90;;;;;;5032111;28;20465;-70
2021/10/18 07:42:52;;;;;;;0.77;0.50;;;3.70;99.90;;;;;;5032171;28;20116;-70
2021/10/18 07:45:18;;;;;;;0.65;0.50;;;3.70;99.90;;;;;;5032281;28;20119;-70
2021/10/18 07:47:44;;;;;;;0.50;0.50;;;3.70;99.90;;;;;;5031908;28;20083;-70
2021/10/18 07:50:11;;;;;;;1.20;0.50;;;3.70;99.90;;;;;;5032272;28;20472;-69
2021/10/18 07:52:42;;;;;;;0.80;0.60;;;3.70;99.90;;;;;;5031952;28;20033;-70
2021/10/18 07:55:14;;;;;;;0.55;0.43;;;3.70;99.90;;;;;;5030462;28;20493;-70
2021/10/18 07:57:41;;;;;;;0.50;0.50;;;3.70;99.90;;;;;;5023262;28;20413;-70
2021/10/18 08:00:07;;;;;;;0.65;0.65;;;3.70;99.90;;;;;;5031969;28;20030;-70
2021/10/18 08:02:33;;;;;;;0.40;0.40;;;3.70;99.90;;;;;;5031735;28;20377;-70
2021/10/18 08:04:59;;;;;;;0.50;0.50;;;3.70;99.90;;;;;;5032108;28;20025;-70
2021/10/18 08:07:31;;;;;;;0.65;0.60;;;3.70;99.90;;;;;;5032161;28;20025;-70
2021/10/18 08:09:58;;;;;;;0.82;0.60;;;3.70;99.90;;;;;;5019379;28;20515;-70
2021/10/18 08:12:24;;;;;;;0.60;0.60;;;3.60;99.90;;;;;;5014620;28;20017;-69
2021/10/18 08:14:49;;;;;;;0.85;0.60;;;3.70;99.90;;;;;;5030362;28;20036;-70
2021/10/18 08:17:15;;;;;;;0.50;0.40;;;3.80;99.90;;;;;;5031645;28;20478;-71
2021/10/18 08:19:41;;;;;;;0.63;0.50;;;3.90;99.90;;;;;;5019884;28;20022;-68
2021/10/18 08:22:07;;;;;;;0.50;0.50;;;3.90;99.90;;;;;;5025086;28;20489;-69
2021/10/18 08:24:32;;;;;;;0.60;0.60;;;3.90;99.90;;;;;;5031356;28;20028;-70
2021/10/18 08:38:46;;;;;;;0.98;0.63;;;3.80;99.90;;;;;;5150707;27;20109;-62
2021/10/18 08:46:06;;;;;;;2.30;0.60;;;4.10;99.90;;;;;;5151002;27;20466;-63
2021/10/18 08:48:32;;;;;;;2.08;0.70;;;4.10;99.90;;;;;;5150416;27;20095;-63
2021/10/18 08:50:58;;;;;;;1.95;0.70;;;4.50;99.90;;;;;;5132158;27;20022;-63
2021/10/18 08:53:24;;;;;;;0.50;0.50;;;4.80;99.90;;;;;;5150339;27;20470;-63
2021/10/18 08:55:50;;;;;;;2.00;0.57;;;4.60;99.90;;;;;;5150779;27;20038;-63
2021/10/18 08:58:17;;;;;;;1.65;0.70;;;4.40;99.90;;;;;;5150565;27;20026;-63
2021/10/18 09:00:48;;;;;;;0.85;0.60;;;4.30;99.90;;;;;;5150282;27;20026;-62
2021/10/18 09:03:15;;;;;;;1.33;0.57;;;4.30;99.90;;;;;;5150663;27;20056;-62
2021/10/18 09:05:41;;;;;;;1.20;0.60;;;4.30;99.90;;;;;;5150431;27;20015;-63
2021/10/18 09:08:07;;;;;;;0.82;0.60;;;4.30;99.90;;;;;;5150418;27;20034;-64
2021/10/18 09:10:33;;;;;;;0.85;0.60;;;4.40;99.90;;;;;;5150139;27;20027;-64
2021/10/18 09:13:11;;;;;;;2.53;0.60;;;4.50;99.90;;;;;;5150346;27;20027;-64
2021/10/18 09:15:37;;;;;;;0.50;0.50;;;4.40;99.90;;;;;;5150345;27;20212;-65
2021/10/18 09:18:04;;;;;;;1.27;0.60;;;4.40;99.90;;;;;;5150309;27;20022;-65
2021/10/18 09:20:29;;;;;;;2.67;0.70;;;4.40;99.90;;;;;;5150046;27;20051;-64
2021/10/18 09:23:18;;;;;;;0.63;0.60;;;4.40;99.90;;;;;;5152942;27;20424;-65
2021/10/18 09:25:44;;;;;;;0.77;0.55;;;4.40;99.90;;;;;;5150830;27;20027;-65
2021/10/18 09:28:15;;;;;;;1.23;0.80;;;4.40;99.90;;;;;;5149827;27;20031;-64
2021/10/18 09:30:44;;;;;;;0.60;0.60;;;4.40;99.90;;;;;;5149552;27;20110;-64
2021/10/18 09:33:15;;;;;;;0.60;0.60;;;4.40;99.90;;;;;;5149660;27;20030;-64
2021/10/18 09:35:41;;;;;;;2.22;0.73;;;4.40;99.90;;;;;;5149536;27;20079;-64
2021/10/18 09:38:09;;;;;;;0.45;0.45;;;4.40;99.90;;;;;;5143037;27;20062;-64
2021/10/18 09:40:38;;;;;;;3.20;0.63;;;4.50;99.90;;;;;;5135687;27;20036;-64
2021/10/18 09:45:58;;;;;;;0.50;0.50;;;4.50;99.90;;;;;;5135755;27;20076;-64
2021/10/18 10:53:13;;;;;;;0.95;0.68;;;5.10;98.90;;;;;;5134748;27;20509;-66
2021/10/18 10:55:39;;;;;;;1.10;0.60;;;5.10;99.00;;;;;;5134220;27;20026;-65
2021/10/18 10:58:36;;;;;;;0.82;0.60;;;5.10;98.70;;;;;;5134288;27;20028;-65
2021/10/18 11:01:03;;;;;;;0.68;0.60;;;5.10;97.40;;;;;;5134389;27;20030;-64
2021/10/18 11:03:41;;;;;;;1.60;0.60;;;5.10;98.20;;;;;;5136638;27;20027;-64
2021/10/18 11:06:12;;;;;;;0.95;0.70;;;5.00;97.60;;;;;;5152835;27;20018;-64
2021/10/18 11:08:44;;;;;;;1.55;0.60;;;5.10;97.20;;;;;;5149960;27;20500;-64
2021/10/18 11:11:22;;;;;;;0.60;0.60;;;5.10;97.30;;;;;;5148347;27;20470;-64
2021/10/18 11:13:55;;;;;;;2.03;0.70;;;5.00;96.30;;;;;;5154635;27;20026;-64
2021/10/18 11:16:24;;;;;;;0.80;0.80;;;5.00;96.90;;;;;;5154671;27;20022;-64
2021/10/18 11:18:54;;;;;;;0.65;0.63;;;5.00;97.90;;;;;;5154617;27;20109;-64
2021/10/18 11:21:24;;;;;;;1.07;0.70;;;5.00;97.10;;;;;;5154905;27;20195;-65
2021/10/18 11:24:04;;;;;;;0.88;0.60;;;5.00;96.60;;;;;;5154545;27;20025;-65
2021/10/18 11:26:36;;;;;;;0.60;0.60;;;4.90;96.70;;;;;;5154400;27;20121;-65
2021/10/18 11:29:05;;;;;;;0.80;0.60;;;4.90;96.20;;;;;;5153984;27;20019;-65
2021/10/18 11:31:35;;;;;;;0.70;0.60;;;4.90;96.00;;;;;;5152918;27;20022;-65
2021/10/18 11:34:02;;;;;;;1.70;1.60;;;4.80;96.50;;;;;;5154328;27;20020;-65
2021/10/18 11:36:28;;;;;;;3.45;0.70;;;4.80;96.40;;;;;;5154024;27;20394;-65
2021/10/18 11:39:21;;;;;;;0.50;0.50;;;4.80;96.60;;;;;;5154223;27;20114;-65
2021/10/18 11:41:59;;;;;;;0.73;0.70;;;4.80;96.70;;;;;;5154085;27;20127;-65
2021/10/18 11:44:57;;;;;;;1.02;0.60;;;4.80;97.10;;;;;;5139318;27;20027;-64
2021/10/18 11:47:29;;;;;;;2.95;0.60;;;4.80;97.30;;;;;;5099046;27;20038;-64
2021/10/18 11:50:04;;;;;;;4.45;0.70;;;4.80;97.60;;;;;;5133290;27;20494;-66
2021/10/18 11:52:31;;;;;;;0.50;0.50;;;5.60;99.90;;;;;;5133159;27;20023;-65
2021/10/18 11:54:57;;;;;;;0.85;0.60;;;5.50;99.90;;;;;;5131922;27;20063;-66
2021/10/18 11:57:25;;;;;;;0.95;0.50;;;5.30;99.70;;;;;;5133272;27;20019;-66
2021/10/18 11:59:51;;;;;;;0.68;0.60;;;5.20;99.40;;;;;;5133084;27;20475;-66
2021/10/18 12:02:20;;;;;;;0.65;0.65;;;5.10;99.60;;;;;;5133000;27;20027;-66
2021/10/18 12:04:59;;;;;;;0.50;0.50;;;5.10;99.90;;;;;;5133060;27;20019;-64
2021/10/18 12:07:37;;;;;;;1.15;0.80;;;5.10;99.90;;;;;;5138630;27;20023;-66
2021/10/18 12:10:18;;;;;;;0.60;0.50;;;5.20;99.90;;;;;;5133136;27;20098;-65
2021/10/18 12:13:33;;;;;;;1.60;0.63;;;5.30;99.80;;;;;;5133123;27;20027;-65
2021/10/18 12:16:07;;;;;;;0.50;0.50;;;5.30;98.30;;;;;;5069723;28;20023;-65
2021/10/18 12:18:35;;;;;;;0.60;0.60;;;5.20;98.10;;;;;;5069510;28;20036;-65
2021/10/18 12:21:09;;;;;;;2.95;0.60;;;5.20;98.20;;;;;;5108291;27;20053;-65
2021/10/18 12:23:47;;;;;;;1.55;0.60;;;5.20;97.10;;;;;;5131612;27;20055;-65
2021/10/18 12:26:15;;;;;;;0.60;0.60;;;5.10;96.80;;;;;;5133186;28;20367;-65
2021/10/18 12:29:03;;;;;;;0.77;0.63;;;5.10;96.90;;;;;;5133101;28;20027;-65
2021/10/18 12:31:37;;;;;;;0.57;0.50;;;5.10;97.50;;;;;;5132251;28;20035;-65
2021/10/18 12:34:10;;;;;;;2.65;0.70;;;5.10;96.50;;;;;;5135506;27;20548;-65
2021/10/18 12:37:15;;;;;;;0.70;0.60;;;5.00;96.10;;;;;;5132813;28;20051;-65
2021/10/18 12:39:56;;;;;;;0.80;0.60;;;5.00;96.30;;;;;;5132664;28;20497;-65
2021/10/18 12:42:27;;;;;;;0.70;0.70;;;4.90;96.20;;;;;;5132844;28;20045;-65
2021/10/18 12:45:08;;;;;;;1.65;0.50;;;4.90;96.20;;;;;;5132656;28;20098;-65
2021/10/18 12:48:02;;;;;;;0.77;0.60;;;4.90;95.80;;;;;;5132801;28;20039;-65
2021/10/18 12:50:30;;;;;;;2.05;0.68;;;4.90;96.20;;;;;;5130313;28;20042;-65
2021/10/18 12:53:00;;;;;;;1.90;0.60;;;4.90;95.70;;;;;;5133003;28;20023;-65
2021/10/18 12:55:31;;;;;;;0.50;0.50;;;4.90;95.70;;;;;;5132573;28;20075;-65
2021/10/18 12:57:59;;;;;;;0.77;0.60;;;4.90;96.30;;;;;;5132730;28;20031;-65
2021/10/18 13:00:27;;;;;;;1.50;0.60;;;4.90;96.10;;;;;;5132804;28;20027;-65
2021/10/18 13:03:19;;;;;;;0.50;0.50;;;4.90;96.50;;;;;;5148644;27;20019;-65
2021/10/18 13:05:55;;;;;;;0.52;0.52;;;5.40;99.90;;;;;;5152698;27;20076;-65
2021/10/18 13:08:25;;;;;;;2.30;0.50;;;5.30;97.80;;;;;;5153287;27;20027;-65
2021/10/18 13:10:52;;;;;;;0.57;0.57;;;5.10;96.10;;;;;;5153800;27;20398;-65
2021/10/18 13:13:27;;;;;;;0.55;0.40;;;5.00;96.40;;;;;;5154524;27;20026;-65
2021/10/18 13:15:54;;;;;;;0.50;0.50;;;5.00;96.60;;;;;;5157044;27;20060;-65
2021/10/18 13:18:21;;;;;;;0.77;0.50;;;5.00;96.80;;;;;;5149808;27;20030;-65
2021/10/18 13:20:47;;;;;;;0.50;0.50;;;4.90;96.10;;;;;;5136148;27;20068;-65
2021/10/18 13:23:20;;;;;;;1.67;0.50;;;4.90;96.20;;;;;;5136305;27;20023;-64
2021/10/18 13:25:45;;;;;;;1.10;0.70;;;4.90;96.20;;;;;;5136234;27;20157;-65
2021/10/18 13:28:13;;;;;;;0.50;0.50;;;4.80;96.40;;;;;;5136408;27;20106;-65
2021/10/18 13:30:39;;;;;;;1.02;0.60;;;4.80;96.90;;;;;;5136092;27;20019;-65
2021/10/18 13:33:05;;;;;;;0.47;0.47;;;4.90;96.60;;;;;;5136067;27;20020;-66
2021/10/18 13:35:32;;;;;;;0.50;0.50;;;4.80;96.80;;;;;;5135973;27;20027;-65
2021/10/18 13:37:59;;;;;;;1.15;0.63;;;4.80;96.80;;;;;;5146731;27;20046;-66
2021/10/18 13:40:27;;;;;;;0.98;0.50;;;4.80;96.70;;;;;;5157003;27;20031;-66
2021/10/18 13:42:53;;;;;;;0.95;0.50;;;4.80;97.10;;;;;;5156623;27;20072;-66
2021/10/18 13:45:21;;;;;;;1.15;0.60;;;4.80;96.30;;;;;;5156571;27;20109;-66
2021/10/18 13:47:48;;;;;;;2.40;0.70;;;4.70;96.10;;;;;;5156362;27;20030;-66
2021/10/18 13:50:14;;;;;;;0.60;0.60;;;4.70;96.10;;;;;;5156722;27;20027;-66
2021/10/18 13:52:40;;;;;;;1.92;0.60;;;4.60;95.90;;;;;;5143549;27;20110;-65
2021/10/18 13:55:07;;;;;;;1.63;0.60;;;4.60;96.30;;;;;;5135554;27;20080;-65
2021/10/18 13:57:34;;;;;;;0.77;0.50;;;4.60;96.60;;;;;;5138097;27;20031;-65
2021/10/18 14:00:00;;;;;;;4.03;0.60;;;4.60;96.50;;;;;;5135458;27;20474;-66
2021/10/18 14:02:26;;;;;;;1.88;0.60;;;4.60;96.60;;;;;;5135631;27;20027;-65
2021/10/18 14:04:52;;;;;;;2.30;0.60;;;4.50;96.90;;;;;;5135283;27;20027;-65
2021/10/18 14:07:18;;;;;;;0.88;0.60;;;4.50;96.70;;;;;;5135246;27;20053;-66
2021/10/18 14:09:45;;;;;;;0.70;0.60;;;4.40;96.80;;;;;;5138953;27;20105;-66
2021/10/18 14:12:14;;;;;;;0.77;0.70;;;4.40;96.90;;;;;;5156382;27;20027;-66
2021/10/18 14:14:40;;;;;;;0.50;0.50;;;4.30;97.10;;;;;;5155703;27;20477;-66
2021/10/18 14:17:05;;;;;;;1.02;1.02;;;4.30;97.30;;;;;;5150406;27;20041;-65
2021/10/18 14:19:31;;;;;;;1.92;0.68;;;4.30;97.80;;;;;;5155481;27;20063;-66
2021/10/18 14:21:57;;;;;;;1.90;0.70;;;4.30;97.70;;;;;;5155557;27;20026;-66
2021/10/18 14:24:23;;;;;;;1.67;0.80;;;4.30;97.60;;;;;;5152451;27;20015;-66
2021/10/18 14:26:49;;;;;;;0.70;0.60;;;4.30;97.80;;;;;;5134960;27;20509;-65
2021/10/18 14:29:14;;;;;;;0.50;0.50;;;4.20;98.00;;;;;;5134958;27;20088;-66
2021/10/18 14:31:40;;;;;;;0.60;0.60;;;4.20;98.10;;;;;;5134620;27;20022;-66
2021/10/18 14:34:06;;;;;;;1.38;0.70;;;4.20;98.20;;;;;;5135017;27;20060;-66
2021/10/18 14:36:33;;;;;;;1.15;0.63;;;4.20;98.80;;;;;;5134870;27;20062;-65
2021/10/18 14:38:59;;;;;;;5.88;0.60;;;4.20;98.40;;;;;;5134769;27;20110;-65
2021/10/18 14:41:27;;;;;;;0.73;0.70;;;4.20;98.40;;;;;;5134671;27;20125;-65
2021/10/18 14:43:56;;;;;;;1.08;0.60;;;4.10;98.40;;;;;;5134616;27;20106;-65
2021/10/18 14:46:23;;;;;;;2.10;0.60;;;4.10;98.40;;;;;;5134565;27;20611;-65
2021/10/18 14:48:50;;;;;;;2.13;0.75;;;4.10;98.30;;;;;;5134411;27;20490;-65
2021/10/18 14:51:17;;;;;;;1.98;0.73;;;4.10;98.60;;;;;;5134448;27;20026;-65